Addy, Washington
Current Conditions -  °F | °C
As of 9:16 AM on Friday 19 Dec 2014 (Local Time) from KDEW Reporting Station
Overcast Overcast  
Wind Chill: 35°   Ceiling: 1200
Heat Index: 39°   Visibility: 9mi
Dew Point: 38°   Wind: 6mph
Humidity: 96%   Direction: 190°S
Pressure: 29.87"   Gusts: NA
Location:  48.36°N, 117.84°W
Report Text: KDEW 191716Z AUTO 19005KT 9SM SCT005 OVC012 04/03 A2987 RMK AO2 T00390033
Loading
Personal Weather Stations






























Interactive Weather Map New forecast layout! Learn more

10-Day Weather Forecast

Advertisements
Track Severe Weather on mobile